createdAt,value
2023-05-04T00:00:29.552Z,62.49
2023-05-04T00:03:15.016Z,62.53
2023-05-04T00:06:00.059Z,62.56
2023-05-04T00:08:45.495Z,62.74
2023-05-04T00:11:30.759Z,63.32
2023-05-04T00:14:16.058Z,63.63
2023-05-04T00:17:02.969Z,63.84
2023-05-04T00:19:48.105Z,64.31
2023-05-04T00:22:34.107Z,65.18
2023-05-04T00:25:19.492Z,65.25
2023-05-04T00:28:05.065Z,65.66
2023-05-04T00:30:52.602Z,65.88
2023-05-04T00:33:37.781Z,65.99
2023-05-04T00:36:23.169Z,66.16
2023-05-04T00:39:08.625Z,66.00
2023-05-04T00:41:54.064Z,66.56
2023-05-04T00:44:41.492Z,66.45
2023-05-04T00:47:27.139Z,66.64
2023-05-04T00:50:12.788Z,66.71
2023-05-04T00:53:01.342Z,66.29
2023-05-04T00:55:46.504Z,66.58
2023-05-04T00:58:32.863Z,66.89
2023-05-04T01:01:18.119Z,67.22
2023-05-04T01:04:04.003Z,67.04
2023-05-04T01:07:08.497Z,67.15
2023-05-04T01:10:02.307Z,67.65
2023-05-04T01:12:55.261Z,67.82
2023-05-04T01:15:41.656Z,67.68
2023-05-04T01:18:26.929Z,67.48
2023-05-04T01:21:12.277Z,67.89
2023-05-04T01:23:59.057Z,67.29
2023-05-04T01:26:46.616Z,67.12
2023-05-04T01:29:42.570Z,67.78
2023-05-04T01:32:29.808Z,67.69
2023-05-04T01:35:17.257Z,67.63
2023-05-04T01:38:05.367Z,67.56
2023-05-04T01:40:51.204Z,67.55
2023-05-04T01:43:36.377Z,67.56
2023-05-04T01:46:23.219Z,66.87
2023-05-04T01:49:08.564Z,67.39
2023-05-04T01:51:53.657Z,67.18
2023-05-04T01:54:39.177Z,67.09
2023-05-04T01:57:24.652Z,67.21
2023-05-04T02:00:11.055Z,67.24
2023-05-04T02:03:02.915Z,67.33
2023-05-04T02:05:48.167Z,66.54
2023-05-04T02:08:34.526Z,66.73
2023-05-04T02:11:19.908Z,66.98
2023-05-04T02:14:05.416Z,66.88
2023-05-04T02:16:50.821Z,67.10
2023-05-04T02:19:35.855Z,67.19
2023-05-04T02:22:21.205Z,67.08
2023-05-04T02:25:07.487Z,67.12
2023-05-04T02:27:52.859Z,66.58
2023-05-04T02:30:38.076Z,66.44
2023-05-04T02:33:23.442Z,66.62
2023-05-04T02:36:09.141Z,66.53
2023-05-04T02:38:58.999Z,66.91
2023-05-04T02:41:44.001Z,66.79
2023-05-04T02:44:29.426Z,66.38
2023-05-04T02:47:14.958Z,66.83
2023-05-04T02:50:00.382Z,66.75
2023-05-04T02:52:45.609Z,67.26
2023-05-04T02:55:30.942Z,67.06
2023-05-04T02:58:16.386Z,66.79
2023-05-04T03:01:02.173Z,66.77
2023-05-04T03:03:47.557Z,67.48
2023-05-04T03:06:32.796Z,67.01
2023-05-04T03:09:17.971Z,66.84
2023-05-04T03:12:04.216Z,67.14
2023-05-04T03:14:49.273Z,67.04
2023-05-04T03:17:34.815Z,67.31
2023-05-04T03:20:23.508Z,66.88
2023-05-04T03:23:08.954Z,66.88
2023-05-04T03:25:54.297Z,67.08
2023-05-04T03:28:39.761Z,67.52
2023-05-04T03:31:25.238Z,67.08
2023-05-04T03:34:14.589Z,67.62
2023-05-04T03:36:59.928Z,67.64
2023-05-04T03:39:44.935Z,67.48
2023-05-04T03:42:30.311Z,67.71
2023-05-04T03:45:15.941Z,67.26
2023-05-04T03:48:01.144Z,67.62
2023-05-04T03:50:46.324Z,67.37
2023-05-04T03:53:35.580Z,67.48
2023-05-04T03:56:21.833Z,67.32
2023-05-04T03:59:07.058Z,67.80
2023-05-04T04:01:52.403Z,67.33
2023-05-04T04:04:37.942Z,67.75
2023-05-04T04:07:23.125Z,67.66
2023-05-04T04:10:09.575Z,67.52
2023-05-04T04:12:55.056Z,67.19
2023-05-04T04:15:40.906Z,66.96
2023-05-04T04:18:27.256Z,67.15
2023-05-04T04:21:13.159Z,66.92
2023-05-04T04:23:58.332Z,66.31
2023-05-04T04:26:44.152Z,66.17
2023-05-04T04:29:29.445Z,65.85
2023-05-04T04:32:15.579Z,65.64
2023-05-04T04:35:01.005Z,66.05
2023-05-04T04:37:46.049Z,65.60
2023-05-04T04:40:31.558Z,65.21
2023-05-04T04:43:16.908Z,65.37
2023-05-04T04:46:03.945Z,64.75
2023-05-04T04:48:49.147Z,65.04
2023-05-04T04:51:35.639Z,64.58
2023-05-04T04:54:21.016Z,64.69
2023-05-04T04:57:06.183Z,64.47
2023-05-04T04:59:53.130Z,64.58
2023-05-04T05:02:38.580Z,64.04
2023-05-04T05:05:25.245Z,63.72
2023-05-04T05:08:10.514Z,64.02
2023-05-04T05:10:56.264Z,63.50
2023-05-04T05:13:41.698Z,63.26
2023-05-04T05:16:27.355Z,62.88
2023-05-04T05:19:12.437Z,62.62
2023-05-04T05:21:57.839Z,62.91
2023-05-04T05:24:42.813Z,62.00
2023-05-04T05:27:29.266Z,62.43
2023-05-04T05:30:14.742Z,61.46
2023-05-04T05:33:00.131Z,60.87
2023-05-04T05:36:05.956Z,60.78
2023-05-04T05:38:52.355Z,60.93
2023-05-04T05:41:37.826Z,60.19
2023-05-04T05:44:23.129Z,59.15
2023-05-04T05:47:08.711Z,58.82
2023-05-04T05:49:54.487Z,58.63
2023-05-04T05:52:39.754Z,58.52
2023-05-04T05:55:24.909Z,57.95
2023-05-04T05:58:10.478Z,58.15
2023-05-04T06:00:55.670Z,57.38
2023-05-04T06:03:41.191Z,57.65
2023-05-04T06:06:26.862Z,56.83
2023-05-04T06:09:11.897Z,56.43
2023-05-04T06:11:58.016Z,55.69
2023-05-04T06:14:43.764Z,55.05
2023-05-04T06:17:29.245Z,54.70
2023-05-04T06:20:14.899Z,54.76
2023-05-04T06:23:00.271Z,54.22
2023-05-04T06:25:45.811Z,53.57
2023-05-04T06:28:31.771Z,53.86
2023-05-04T06:31:16.977Z,54.29
2023-05-04T06:34:02.243Z,53.47
2023-05-04T06:36:49.072Z,53.12
2023-05-04T06:39:34.629Z,52.25
2023-05-04T06:42:19.705Z,52.27
2023-05-04T06:45:07.540Z,51.92
2023-05-04T06:47:53.512Z,51.86
2023-05-04T06:50:39.395Z,50.96
2023-05-04T06:53:25.093Z,50.43
2023-05-04T06:56:10.502Z,50.02
2023-05-04T06:58:55.843Z,49.93
2023-05-04T07:01:41.485Z,49.92
2023-05-04T07:04:26.721Z,49.43
2023-05-04T07:07:12.109Z,50.24
2023-05-04T07:09:57.402Z,50.02
2023-05-04T07:12:43.526Z,49.56
2023-05-04T07:15:29.541Z,48.93
2023-05-04T07:18:14.799Z,48.43
2023-05-04T07:21:16.036Z,48.44
2023-05-04T07:24:06.859Z,47.92
2023-05-04T07:26:52.037Z,47.61
2023-05-04T07:29:37.354Z,46.81
2023-05-04T07:32:23.031Z,46.03
2023-05-04T07:35:08.892Z,46.06
2023-05-04T07:37:54.875Z,45.60
2023-05-04T07:40:40.190Z,43.87
2023-05-04T07:43:25.796Z,44.71
2023-05-04T07:46:11.951Z,44.18
2023-05-04T07:48:57.054Z,44.29
2023-05-04T07:51:42.678Z,43.23
2023-05-04T07:54:28.437Z,43.00
2023-05-04T07:57:13.836Z,42.78
2023-05-04T07:59:59.352Z,42.61
2023-05-04T08:02:44.760Z,42.39
2023-05-04T08:05:30.167Z,41.88
2023-05-04T08:08:15.561Z,42.43
2023-05-04T08:11:16.020Z,42.39
2023-05-04T08:14:05.512Z,42.82
2023-05-04T08:16:50.678Z,42.44
2023-05-04T08:19:35.901Z,42.11
2023-05-04T08:22:21.168Z,41.19
2023-05-04T08:25:07.500Z,41.55
2023-05-04T08:27:53.312Z,41.34
2023-05-04T08:30:38.877Z,40.97
2023-05-04T08:33:24.214Z,40.11
2023-05-04T08:36:09.717Z,40.27
2023-05-04T08:38:54.789Z,39.91
2023-05-04T08:41:46.489Z,39.27
2023-05-04T08:44:31.752Z,39.12
2023-05-04T08:47:17.592Z,38.50
2023-05-04T08:50:02.865Z,37.23
2023-05-04T08:52:48.895Z,37.01
2023-05-04T08:55:38.058Z,36.27
2023-05-04T08:58:24.583Z,35.75
2023-05-04T09:01:10.706Z,35.60
2023-05-04T09:03:57.045Z,35.73
2023-05-04T09:06:42.310Z,35.83
2023-05-04T09:09:28.839Z,36.00
2023-05-04T09:12:14.447Z,36.13
2023-05-04T09:15:05.871Z,35.21
2023-05-04T09:18:01.154Z,34.38
2023-05-04T09:20:47.800Z,35.60
2023-05-04T09:23:33.610Z,34.61
2023-05-04T09:26:33.316Z,34.97
2023-05-04T09:29:18.868Z,34.19
2023-05-04T09:32:04.940Z,33.80
2023-05-04T09:34:53.993Z,33.67
2023-05-04T09:37:46.962Z,33.74
2023-05-04T09:40:36.186Z,33.90
2023-05-04T09:43:22.042Z,34.02
2023-05-04T09:46:08.635Z,33.68
2023-05-04T09:48:56.620Z,33.31
2023-05-04T09:51:42.895Z,32.45
2023-05-04T09:54:29.826Z,32.99
2023-05-04T09:57:16.077Z,32.77
2023-05-04T10:00:03.042Z,32.87
2023-05-04T10:02:53.058Z,33.67
2023-05-04T10:05:40.015Z,32.48
2023-05-04T10:08:26.180Z,32.53
2023-05-04T10:11:12.600Z,32.52
2023-05-04T10:13:58.166Z,32.36
2023-05-04T10:17:17.199Z,32.82
2023-05-04T10:20:38.075Z,32.60
2023-05-04T10:24:07.351Z,32.97
2023-05-04T10:26:59.288Z,31.44
2023-05-04T10:29:52.172Z,30.71
2023-05-04T10:32:39.905Z,31.02
2023-05-04T10:35:25.922Z,31.26
2023-05-04T10:38:12.492Z,31.54
2023-05-04T10:40:58.051Z,31.56
2023-05-04T10:43:48.672Z,30.82
2023-05-04T10:46:33.754Z,31.72
2023-05-04T10:49:19.967Z,31.03
2023-05-04T10:52:16.048Z,30.47
2023-05-04T10:55:02.319Z,31.35
2023-05-04T10:57:53.781Z,31.86
2023-05-04T11:00:41.256Z,29.32
2023-05-04T11:03:26.961Z,28.81
2023-05-04T11:06:17.392Z,28.50
2023-05-04T11:09:03.653Z,28.09
2023-05-04T11:11:49.936Z,26.94
2023-05-04T11:14:41.148Z,26.93
2023-05-04T11:17:28.548Z,27.19
2023-05-04T11:20:27.147Z,27.30
2023-05-04T11:23:16.482Z,27.28
2023-05-04T11:26:07.398Z,27.71
2023-05-04T11:28:54.052Z,27.72
2023-05-04T11:31:39.787Z,28.02
2023-05-04T11:34:25.326Z,28.31
2023-05-04T11:37:10.611Z,28.59
2023-05-04T11:39:56.729Z,28.98
2023-05-04T11:42:42.982Z,28.59
2023-05-04T11:45:31.077Z,28.32
2023-05-04T11:48:18.617Z,28.20
2023-05-04T11:51:05.345Z,27.96
2023-05-04T11:53:51.098Z,28.19
2023-05-04T11:56:42.506Z,28.37
2023-05-04T11:59:27.596Z,29.53
2023-05-04T12:02:17.248Z,28.76
2023-05-04T12:05:03.256Z,28.45
2023-05-04T12:07:48.805Z,28.55
2023-05-04T12:10:36.653Z,28.30
2023-05-04T12:13:22.972Z,27.85
2023-05-04T12:16:15.779Z,28.17
2023-05-04T12:19:10.660Z,28.16
2023-05-04T12:21:58.373Z,27.99
2023-05-04T12:24:44.151Z,28.27
2023-05-04T12:27:29.621Z,28.70
2023-05-04T12:30:14.920Z,28.88
2023-05-04T12:33:00.127Z,28.31
2023-05-04T12:35:45.216Z,28.02
2023-05-04T12:38:30.532Z,27.47
2023-05-04T12:41:16.038Z,28.01
2023-05-04T12:44:01.503Z,28.61
2023-05-04T12:46:47.033Z,28.84
2023-05-04T12:49:32.245Z,28.46
2023-05-04T12:52:17.542Z,28.35
2023-05-04T12:55:03.300Z,27.91
2023-05-04T12:57:48.391Z,27.89
2023-05-04T13:00:38.553Z,27.46
2023-05-04T13:03:24.094Z,26.70
2023-05-04T13:06:09.616Z,26.67
2023-05-04T13:08:55.044Z,27.42
2023-05-04T13:11:40.558Z,28.05
2023-05-04T13:14:25.868Z,27.82
2023-05-04T13:17:11.891Z,28.22
2023-05-04T13:19:56.995Z,28.94
2023-05-04T13:22:46.860Z,29.21
2023-05-04T13:25:34.609Z,28.54
2023-05-04T13:28:19.789Z,29.00
2023-05-04T13:31:05.752Z,28.54
2023-05-04T13:33:51.026Z,28.39
2023-05-04T13:36:36.428Z,27.20
2023-05-04T13:39:22.608Z,27.11
2023-05-04T13:42:08.161Z,27.69
2023-05-04T13:44:53.362Z,27.46
2023-05-04T13:47:40.100Z,27.76
2023-05-04T13:50:25.653Z,27.28
2023-05-04T13:53:13.831Z,27.73
2023-05-04T13:55:59.162Z,27.99
2023-05-04T13:58:44.482Z,28.03
2023-05-04T14:01:29.730Z,27.26
2023-05-04T14:04:14.878Z,28.22
2023-05-04T14:07:00.212Z,28.37
2023-05-04T14:09:45.958Z,28.19
2023-05-04T14:12:31.172Z,28.53
2023-05-04T14:15:16.749Z,27.69
2023-05-04T14:18:04.834Z,28.03
2023-05-04T14:20:50.890Z,27.84
2023-05-04T14:23:36.269Z,27.90
2023-05-04T14:26:21.437Z,28.29
2023-05-04T14:29:06.551Z,27.80
2023-05-04T14:31:52.748Z,27.55
2023-05-04T14:34:37.917Z,28.15
2023-05-04T14:37:23.164Z,28.14
2023-05-04T14:40:12.409Z,28.63
2023-05-04T14:42:59.598Z,28.57
2023-05-04T14:45:45.157Z,28.49
2023-05-04T14:48:33.347Z,28.58
2023-05-04T14:51:26.493Z,28.70
2023-05-04T14:54:11.856Z,28.38
2023-05-04T14:56:58.823Z,27.50
2023-05-04T14:59:44.329Z,27.29
2023-05-04T15:02:29.764Z,27.37
2023-05-04T15:05:15.653Z,27.08
2023-05-04T15:08:01.584Z,27.38
2023-05-04T15:10:46.645Z,27.30
2023-05-04T15:13:32.461Z,26.73
2023-05-04T15:16:20.435Z,26.77
2023-05-04T15:19:06.440Z,26.86
2023-05-04T15:21:52.719Z,26.89
2023-05-04T15:24:37.862Z,28.06
2023-05-04T15:27:24.044Z,28.25
2023-05-04T15:30:11.563Z,28.22
2023-05-04T15:32:57.148Z,27.67
2023-05-04T15:35:42.860Z,27.64
2023-05-04T15:38:28.618Z,27.08
2023-05-04T15:41:14.199Z,28.05
2023-05-04T15:43:59.709Z,27.24
2023-05-04T15:46:45.445Z,26.52
2023-05-04T15:49:32.006Z,27.61
2023-05-04T15:52:17.394Z,26.88
2023-05-04T15:55:16.402Z,27.58
2023-05-04T15:58:08.300Z,27.45
2023-05-04T16:00:53.858Z,26.32
2023-05-04T16:03:39.437Z,26.93
2023-05-04T16:06:24.718Z,27.31
2023-05-04T16:09:09.987Z,27.54
2023-05-04T16:11:55.260Z,27.79
2023-05-04T16:14:40.603Z,27.37
2023-05-04T16:17:26.137Z,26.89
2023-05-04T16:20:11.648Z,26.90
2023-05-04T16:22:57.000Z,26.89
2023-05-04T16:25:42.794Z,27.04
2023-05-04T16:28:28.671Z,26.93
2023-05-04T16:31:15.114Z,27.34
2023-05-04T16:34:00.518Z,27.58
2023-05-04T16:36:45.922Z,27.31
2023-05-04T16:39:31.788Z,27.29
2023-05-04T16:42:18.565Z,27.88
2023-05-04T16:45:06.038Z,27.54
2023-05-04T16:47:52.184Z,27.96
2023-05-04T16:50:38.262Z,28.24
2023-05-04T16:53:23.649Z,28.16
2023-05-04T16:56:08.877Z,28.09
2023-05-04T16:58:54.586Z,28.29
2023-05-04T17:01:41.201Z,28.42
2023-05-04T17:04:27.527Z,28.07
2023-05-04T17:07:13.072Z,28.78
2023-05-04T17:09:58.363Z,28.71
2023-05-04T17:12:43.755Z,29.05
2023-05-04T17:15:29.113Z,28.65
2023-05-04T17:18:14.257Z,28.63
2023-05-04T17:20:59.649Z,28.49
2023-05-04T17:23:45.128Z,28.53
2023-05-04T17:26:30.693Z,28.43
2023-05-04T17:29:16.491Z,28.61
2023-05-04T17:32:02.072Z,28.60
2023-05-04T17:34:47.364Z,28.91
2023-05-04T17:37:33.044Z,28.93
2023-05-04T17:40:18.483Z,28.80
2023-05-04T17:43:05.237Z,28.76
2023-05-04T17:45:50.411Z,29.22
2023-05-04T17:48:36.677Z,29.26
2023-05-04T17:51:22.815Z,29.39
2023-05-04T17:54:08.142Z,29.58
2023-05-04T17:56:53.793Z,30.05
2023-05-04T17:59:39.174Z,30.16
2023-05-04T18:02:24.383Z,30.55
2023-05-04T18:05:09.908Z,30.38
2023-05-04T18:07:58.629Z,30.47
2023-05-04T18:10:43.784Z,30.66
2023-05-04T18:13:29.378Z,30.70
2023-05-04T18:16:14.894Z,30.78
2023-05-04T18:19:00.407Z,30.95
2023-05-04T18:21:45.876Z,31.12
2023-05-04T18:24:33.319Z,31.40
2023-05-04T18:27:19.304Z,31.72
2023-05-04T18:30:05.769Z,31.47
2023-05-04T18:32:51.916Z,31.79
2023-05-04T18:35:37.397Z,32.24
2023-05-04T18:38:22.796Z,31.83
2023-05-04T18:41:08.052Z,31.81
2023-05-04T18:43:55.725Z,32.19
2023-05-04T18:46:40.936Z,32.33
2023-05-04T18:49:26.165Z,34.48
2023-05-04T18:52:11.509Z,36.26
2023-05-04T18:54:57.030Z,37.55
2023-05-04T18:57:42.204Z,38.20
2023-05-04T19:00:27.566Z,38.81
2023-05-04T19:03:12.811Z,38.64
2023-05-04T19:05:58.238Z,38.66
2023-05-04T19:08:43.486Z,38.76
2023-05-04T19:11:29.178Z,38.49
2023-05-04T19:14:15.079Z,38.55
2023-05-04T19:17:01.062Z,38.79
2023-05-04T19:19:46.688Z,38.72
2023-05-04T19:22:31.964Z,38.65
2023-05-04T19:25:33.334Z,38.63
2023-05-04T19:28:19.996Z,38.77
2023-05-04T19:31:05.486Z,38.60
2023-05-04T19:33:52.422Z,38.48
2023-05-04T19:36:37.914Z,38.75
2023-05-04T19:39:23.233Z,38.54
2023-05-04T19:42:08.679Z,38.84
2023-05-04T19:44:53.994Z,38.77
2023-05-04T19:47:39.532Z,38.73
2023-05-04T19:50:25.127Z,38.51
2023-05-04T19:53:10.986Z,38.71
2023-05-04T19:55:56.411Z,38.86
2023-05-04T19:58:42.024Z,38.65
2023-05-04T20:01:27.069Z,38.94
2023-05-04T20:04:12.717Z,38.91
2023-05-04T20:06:57.933Z,38.69
2023-05-04T20:09:43.183Z,39.08
2023-05-04T20:12:28.714Z,38.91
2023-05-04T20:15:13.977Z,39.23
2023-05-04T20:17:59.274Z,38.74
2023-05-04T20:20:44.397Z,38.64
2023-05-04T20:23:29.931Z,39.14
2023-05-04T20:26:15.360Z,39.26
2023-05-04T20:29:00.722Z,39.22
2023-05-04T20:31:46.341Z,39.33
2023-05-04T20:34:31.842Z,39.13
2023-05-04T20:37:16.935Z,39.02
2023-05-04T20:40:02.486Z,39.75
2023-05-04T20:42:47.804Z,39.78
2023-05-04T20:45:34.314Z,40.51
2023-05-04T20:48:19.264Z,40.57
2023-05-04T20:53:58.531Z,41.31
2023-05-04T20:56:44.073Z,42.33
2023-05-04T20:59:29.482Z,42.17
2023-05-04T21:02:14.950Z,42.50
2023-05-04T21:05:02.671Z,42.95
2023-05-04T21:07:47.772Z,43.11
2023-05-04T21:10:33.748Z,43.79
2023-05-04T21:13:20.800Z,44.53
2023-05-04T21:16:06.297Z,45.30
2023-05-04T21:18:51.376Z,45.12
2023-05-04T21:21:40.641Z,45.63
2023-05-04T21:24:26.161Z,46.04
2023-05-04T21:27:11.316Z,46.27
2023-05-04T21:29:56.971Z,46.54
2023-05-04T21:32:42.300Z,46.72
2023-05-04T21:35:31.327Z,46.83
2023-05-04T21:38:10.886Z,47.01
2023-05-04T21:40:56.169Z,47.55
2023-05-04T21:43:42.280Z,47.31
2023-05-04T21:46:27.684Z,47.58
2023-05-04T21:49:12.724Z,47.71
2023-05-04T21:51:58.163Z,47.79
2023-05-04T21:54:43.567Z,47.97
2023-05-04T21:57:32.631Z,48.47
2023-05-04T22:00:18.475Z,48.06
2023-05-04T22:03:03.622Z,48.49
2023-05-04T22:05:57.508Z,48.58
2023-05-04T22:08:42.585Z,48.64
2023-05-04T22:11:28.149Z,49.45
2023-05-04T22:14:13.302Z,49.28
2023-05-04T22:16:59.453Z,50.58
2023-05-04T22:19:45.096Z,50.32
2023-05-04T22:22:30.471Z,50.93
2023-05-04T22:25:15.982Z,50.79
2023-05-04T22:28:01.256Z,51.02
2023-05-04T22:30:49.134Z,52.22
2023-05-04T22:33:34.163Z,52.87
2023-05-04T22:36:19.568Z,53.26
2023-05-04T22:39:04.921Z,53.40
2023-05-04T22:41:50.374Z,53.70
2023-05-04T22:44:35.679Z,54.06
2023-05-04T22:47:20.921Z,54.33
2023-05-04T22:50:07.777Z,54.79
2023-05-04T22:52:53.077Z,54.88
2023-05-04T22:55:38.636Z,55.22
2023-05-04T22:58:23.872Z,55.52
2023-05-04T23:01:10.417Z,56.04
2023-05-04T23:03:55.967Z,56.48
2023-05-04T23:06:41.432Z,56.82
2023-05-04T23:09:27.020Z,57.41
2023-05-04T23:12:13.023Z,57.66
2023-05-04T23:14:57.910Z,57.67
2023-05-04T23:17:43.120Z,58.16
2023-05-04T23:20:28.720Z,58.33
2023-05-04T23:23:13.874Z,58.53
2023-05-04T23:25:59.284Z,58.45
2023-05-04T23:28:44.648Z,58.78
2023-05-04T23:31:30.110Z,58.89
2023-05-04T23:34:15.398Z,58.89
2023-05-04T23:37:01.015Z,58.91
2023-05-04T23:39:47.031Z,59.09
2023-05-04T23:42:32.102Z,58.82
2023-05-04T23:45:17.660Z,59.12
2023-05-04T23:48:02.900Z,59.22
2023-05-04T23:50:52.822Z,59.18
2023-05-04T23:53:37.968Z,59.09
2023-05-04T23:56:23.695Z,58.96
2023-05-04T23:59:10.435Z,59.11
